Terminal Aerodrome Forecast
Issued by NWS Billings, MT

Home | Current Version | Previous Version | Text Only | Print | Product List | Glossary On
Versions: 1 2 3 4 5 6 7 8 9 10 11 12 13 14 15 16 17 18 19 20 21 22 23 24 25 26 27 28 29 30 31 32 33 34 35 36 37
000
FTUS45 KBYZ 200520
TAFBIL
TAF
KBIL 200520Z 2006/2106 24012KT P6SM VCSH BKN050
     FM201100 25013KT P6SM FEW120 BKN250
     FM210000 24014KT P6SM SCT090 BKN120=

USA.gov is the U.S. government's official web portal to all federal, state and local government web resources and services.